createdAt,value
2018-12-06T00:00:43.203Z,83.76
2018-12-06T00:03:10.665Z,83.82
2018-12-06T00:05:38.164Z,83.52
2018-12-06T00:08:15.435Z,83.56
2018-12-06T00:10:43.937Z,83.74
2018-12-06T00:13:11.425Z,83.04
2018-12-06T00:15:38.913Z,83.15
2018-12-06T00:18:06.417Z,83.36
2018-12-06T00:20:33.880Z,83.83
2018-12-06T00:23:01.342Z,83.39
2018-12-06T00:25:28.815Z,83.39
2018-12-06T00:27:56.267Z,83.75
2018-12-06T00:30:34.367Z,82.95
2018-12-06T00:33:02.041Z,83.44
2018-12-06T00:35:29.525Z,83.25
2018-12-06T00:37:56.985Z,83.24
2018-12-06T00:40:24.479Z,82.78
2018-12-06T00:42:51.947Z,83.42
2018-12-06T00:45:19.455Z,82.98
2018-12-06T00:47:46.918Z,81.85
2018-12-06T00:50:14.395Z,82.68
2018-12-06T00:52:41.881Z,82.56
2018-12-06T00:55:09.370Z,82.05
2018-12-06T00:57:36.812Z,82.28
2018-12-06T01:00:06.679Z,82.25
2018-12-06T01:02:34.178Z,82.54
2018-12-06T01:05:01.650Z,82.81
2018-12-06T01:07:29.142Z,82.24
2018-12-06T01:09:56.616Z,82.48
2018-12-06T01:12:24.395Z,82.13
2018-12-06T01:14:51.870Z,82.38
2018-12-06T01:17:19.357Z,81.87
2018-12-06T01:19:46.824Z,82.01
2018-12-06T01:22:14.335Z,81.97
2018-12-06T01:24:41.807Z,82.40
2018-12-06T01:27:09.274Z,82.71
2018-12-06T01:29:37.632Z,82.38
2018-12-06T01:32:05.098Z,82.24
2018-12-06T01:34:32.620Z,82.39
2018-12-06T01:37:00.164Z,82.33
2018-12-06T01:39:27.622Z,82.04
2018-12-06T01:41:55.092Z,81.88
2018-12-06T01:44:22.582Z,82.34
2018-12-06T01:46:50.143Z,81.57
2018-12-06T01:49:17.604Z,81.97
2018-12-06T01:51:45.087Z,81.30
2018-12-06T01:54:12.651Z,81.20
2018-12-06T01:56:40.941Z,81.89
2018-12-06T01:59:08.483Z,81.35
2018-12-06T02:01:35.960Z,81.56
2018-12-06T02:04:03.497Z,81.90
2018-12-06T02:06:30.989Z,81.49
2018-12-06T02:08:58.437Z,81.96
2018-12-06T02:11:25.971Z,82.00
2018-12-06T02:13:53.509Z,81.42
2018-12-06T02:16:20.997Z,81.98
2018-12-06T02:18:48.471Z,81.87
2018-12-06T02:21:15.953Z,81.71
2018-12-06T02:23:43.435Z,81.78
2018-12-06T02:26:10.933Z,81.33
2018-12-06T02:28:38.415Z,82.26
2018-12-06T02:31:05.919Z,81.85
2018-12-06T02:33:33.379Z,81.71
2018-12-06T02:36:00.846Z,81.40
2018-12-06T02:38:28.400Z,81.51
2018-12-06T02:40:55.877Z,81.32
2018-12-06T02:43:23.370Z,81.98
2018-12-06T02:45:50.841Z,81.58
2018-12-06T02:48:18.434Z,81.65
2018-12-06T02:50:45.906Z,81.65
2018-12-06T02:53:13.599Z,81.67
2018-12-06T02:55:41.043Z,81.05
2018-12-06T02:58:08.604Z,81.67
2018-12-06T03:00:36.100Z,81.84
2018-12-06T03:03:03.578Z,80.96
2018-12-06T03:05:31.063Z,81.47
2018-12-06T03:07:58.648Z,81.31
2018-12-06T03:10:26.079Z,80.97
2018-12-06T03:12:53.567Z,81.22
2018-12-06T03:15:21.019Z,80.58
2018-12-06T03:17:48.533Z,81.31
2018-12-06T03:20:16.004Z,81.13
2018-12-06T03:22:43.535Z,81.11
2018-12-06T03:25:11.029Z,81.32
2018-12-06T03:27:38.551Z,81.22
2018-12-06T03:30:06.516Z,80.85
2018-12-06T03:32:34.005Z,80.58
2018-12-06T03:35:01.550Z,80.64
2018-12-06T03:37:29.054Z,80.38
2018-12-06T03:39:56.526Z,80.61
2018-12-06T03:42:24.183Z,80.55
2018-12-06T03:44:51.888Z,80.53
2018-12-06T03:47:19.376Z,79.71
2018-12-06T03:49:46.852Z,79.59
2018-12-06T03:52:14.303Z,79.59
2018-12-06T03:54:41.797Z,78.87
2018-12-06T03:57:09.283Z,78.98
2018-12-06T03:59:36.819Z,79.34
2018-12-06T04:02:04.290Z,78.61
2018-12-06T04:04:31.825Z,78.95
2018-12-06T04:06:59.273Z,78.67
2018-12-06T04:09:26.851Z,78.04
2018-12-06T04:11:54.304Z,77.91
2018-12-06T04:14:21.778Z,76.93
2018-12-06T04:16:49.249Z,76.41
2018-12-06T04:19:16.714Z,76.22
2018-12-06T04:21:44.163Z,75.64
2018-12-06T04:24:11.729Z,76.03
2018-12-06T04:26:39.247Z,76.30
2018-12-06T04:29:06.711Z,75.80
2018-12-06T04:31:35.185Z,74.94
2018-12-06T04:34:02.639Z,74.29
2018-12-06T04:36:30.101Z,74.40
2018-12-06T04:38:57.586Z,74.50
2018-12-06T04:41:25.068Z,74.54
2018-12-06T04:43:52.549Z,73.99
2018-12-06T04:46:20.016Z,75.27
2018-12-06T04:48:47.491Z,75.01
2018-12-06T04:51:15.000Z,75.21
2018-12-06T04:53:42.460Z,75.44
2018-12-06T04:56:09.921Z,74.75
2018-12-06T04:58:37.387Z,74.98
2018-12-06T05:01:04.908Z,74.35
2018-12-06T05:03:32.366Z,74.26
2018-12-06T05:05:59.837Z,73.47
2018-12-06T05:08:27.270Z,73.59
2018-12-06T05:10:54.761Z,73.09
2018-12-06T05:13:22.199Z,73.82
2018-12-06T05:15:49.658Z,73.33
2018-12-06T05:18:18.687Z,73.81
2018-12-06T05:20:46.183Z,73.71
2018-12-06T05:23:13.639Z,72.81
2018-12-06T05:25:41.074Z,73.88
2018-12-06T05:28:08.551Z,72.94
2018-12-06T05:30:36.038Z,72.74
2018-12-06T05:33:03.546Z,72.98
2018-12-06T05:35:31.056Z,73.68
2018-12-06T05:37:58.533Z,73.56
2018-12-06T05:40:26.088Z,73.46
2018-12-06T05:42:53.519Z,73.25
2018-12-06T05:45:21.000Z,73.67
2018-12-06T05:47:48.585Z,73.24
2018-12-06T05:50:16.143Z,72.71
2018-12-06T05:52:43.586Z,72.28
2018-12-06T05:55:11.070Z,71.11
2018-12-06T05:57:38.546Z,71.32
2018-12-06T06:00:07.399Z,71.34
2018-12-06T06:02:34.875Z,72.21
2018-12-06T06:05:02.349Z,70.77
2018-12-06T06:07:29.821Z,71.53
2018-12-06T06:09:57.257Z,71.04
2018-12-06T06:12:24.736Z,71.19
2018-12-06T06:14:52.209Z,71.48
2018-12-06T06:17:19.687Z,71.61
2018-12-06T06:19:47.161Z,70.99
2018-12-06T06:22:14.792Z,70.38
2018-12-06T06:24:42.321Z,70.84
2018-12-06T06:27:09.873Z,70.67
2018-12-06T06:29:37.324Z,71.65
2018-12-06T06:32:04.796Z,72.31
2018-12-06T06:34:32.283Z,71.82
2018-12-06T06:36:59.780Z,70.76
2018-12-06T06:39:27.247Z,70.94
2018-12-06T06:41:54.758Z,71.51
2018-12-06T06:44:22.258Z,70.26
2018-12-06T06:46:49.712Z,70.42
2018-12-06T06:49:17.173Z,70.24
2018-12-06T06:51:44.690Z,70.91
2018-12-06T06:54:12.185Z,71.35
2018-12-06T06:56:39.655Z,70.57
2018-12-06T06:59:07.121Z,70.89
2018-12-06T07:01:34.602Z,71.54
2018-12-06T07:04:02.099Z,71.88
2018-12-06T07:06:29.635Z,71.04
2018-12-06T07:08:57.131Z,71.21
2018-12-06T07:11:24.585Z,69.98
2018-12-06T07:13:52.049Z,70.60
2018-12-06T07:16:19.635Z,70.50
2018-12-06T07:18:47.153Z,70.88
2018-12-06T07:21:14.619Z,69.54
2018-12-06T07:23:42.188Z,69.86
2018-12-06T07:26:09.655Z,70.21
2018-12-06T07:28:37.193Z,69.89
2018-12-06T07:31:04.685Z,69.52
2018-12-06T07:33:32.175Z,69.60
2018-12-06T07:35:59.639Z,70.62
2018-12-06T07:38:27.162Z,69.91
2018-12-06T07:40:54.635Z,69.51
2018-12-06T07:43:22.975Z,68.96
2018-12-06T07:45:52.616Z,69.76
2018-12-06T07:48:20.100Z,70.60
2018-12-06T07:50:47.564Z,68.96
2018-12-06T07:53:15.043Z,69.56
2018-12-06T07:55:42.503Z,70.09
2018-12-06T07:58:10.107Z,69.02
2018-12-06T08:00:37.581Z,69.81
2018-12-06T08:03:05.063Z,69.16
2018-12-06T08:05:32.515Z,69.69
2018-12-06T08:07:59.983Z,69.70
2018-12-06T08:10:27.428Z,69.34
2018-12-06T08:12:54.921Z,69.61
2018-12-06T08:15:22.473Z,68.46
2018-12-06T08:17:49.944Z,68.91
2018-12-06T08:20:17.443Z,68.51
2018-12-06T08:22:44.889Z,68.29
2018-12-06T08:25:12.346Z,68.93
2018-12-06T08:27:39.798Z,69.09
2018-12-06T08:30:07.527Z,69.37
2018-12-06T08:32:34.976Z,68.82
2018-12-06T08:35:02.499Z,69.39
2018-12-06T08:37:30.000Z,68.05
2018-12-06T08:39:57.453Z,68.45
2018-12-06T08:42:24.975Z,67.92
2018-12-06T08:44:52.446Z,68.26
2018-12-06T08:47:19.934Z,68.80
2018-12-06T08:49:47.439Z,68.39
2018-12-06T08:52:14.881Z,67.86
2018-12-06T08:54:42.369Z,67.47
2018-12-06T08:57:09.819Z,67.69
2018-12-06T08:59:37.308Z,67.72
2018-12-06T09:02:04.881Z,67.43
2018-12-06T09:04:32.390Z,67.10
2018-12-06T09:06:59.894Z,67.96
2018-12-06T09:09:27.425Z,67.56
2018-12-06T09:11:54.936Z,67.22
2018-12-06T09:14:23.302Z,67.05
2018-12-06T09:16:50.761Z,67.69
2018-12-06T09:19:18.234Z,67.58
2018-12-06T09:21:45.746Z,67.62
2018-12-06T09:24:13.696Z,67.67
2018-12-06T09:26:41.181Z,66.52
2018-12-06T09:29:08.818Z,67.76
2018-12-06T09:31:36.338Z,66.28
2018-12-06T09:34:05.648Z,67.30
2018-12-06T09:36:33.347Z,67.85
2018-12-06T09:39:00.840Z,67.52
2018-12-06T09:41:28.318Z,67.07
2018-12-06T09:43:55.817Z,66.75
2018-12-06T09:46:23.301Z,66.76
2018-12-06T09:48:50.824Z,67.74
2018-12-06T09:51:18.330Z,67.38
2018-12-06T09:53:45.800Z,67.86
2018-12-06T09:56:13.353Z,67.05
2018-12-06T09:58:40.816Z,67.63
2018-12-06T10:01:10.751Z,68.16
2018-12-06T10:03:38.265Z,67.16
2018-12-06T10:06:05.731Z,66.91
2018-12-06T10:08:33.213Z,66.97
2018-12-06T10:11:00.695Z,66.50
2018-12-06T10:13:28.153Z,67.28
2018-12-06T10:15:55.764Z,66.64
2018-12-06T10:18:23.261Z,65.78
2018-12-06T10:20:50.835Z,66.11
2018-12-06T10:23:18.483Z,65.56
2018-12-06T10:25:45.991Z,66.16
2018-12-06T10:28:13.566Z,65.53
2018-12-06T10:30:41.021Z,65.33
2018-12-06T10:33:08.518Z,65.32
2018-12-06T10:35:35.978Z,65.42
2018-12-06T10:38:03.458Z,66.22
2018-12-06T10:40:31.789Z,66.74
2018-12-06T10:42:59.285Z,65.96
2018-12-06T10:45:27.438Z,66.18
2018-12-06T10:47:55.004Z,67.19
2018-12-06T10:50:22.499Z,66.59
2018-12-06T10:52:49.970Z,66.96
2018-12-06T10:55:17.928Z,66.71
2018-12-06T10:57:45.465Z,66.07
2018-12-06T11:00:14.865Z,66.76
2018-12-06T11:02:48.269Z,65.73
2018-12-06T11:05:15.963Z,65.92
2018-12-06T11:07:43.408Z,65.47
2018-12-06T11:10:10.885Z,65.41
2018-12-06T11:12:38.400Z,66.28
2018-12-06T11:15:06.031Z,65.23
2018-12-06T11:17:33.541Z,65.34
2018-12-06T11:20:01.037Z,66.33
2018-12-06T11:22:28.552Z,66.44
2018-12-06T11:24:56.051Z,66.33
2018-12-06T11:27:23.513Z,66.15
2018-12-06T11:29:50.951Z,66.23
2018-12-06T11:32:18.433Z,66.38
2018-12-06T11:34:45.927Z,66.47
2018-12-06T11:37:13.450Z,66.24
2018-12-06T11:39:40.982Z,66.80
2018-12-06T11:42:08.441Z,66.44
2018-12-06T11:44:35.918Z,67.11
2018-12-06T11:47:03.460Z,67.12
2018-12-06T11:49:30.907Z,67.03
2018-12-06T11:51:58.391Z,67.82
2018-12-06T11:54:25.887Z,67.50
2018-12-06T11:56:53.345Z,67.51
2018-12-06T11:59:20.986Z,67.99
2018-12-06T12:01:48.437Z,68.29
2018-12-06T12:04:16.003Z,67.89
2018-12-06T12:06:43.471Z,68.58
2018-12-06T12:09:11.025Z,68.56
2018-12-06T12:11:39.142Z,68.62
2018-12-06T12:14:06.665Z,69.40
2018-12-06T12:16:34.269Z,69.61
2018-12-06T12:19:01.765Z,68.79
2018-12-06T12:21:29.211Z,69.04
2018-12-06T12:23:56.710Z,69.87
2018-12-06T12:26:24.165Z,69.75
2018-12-06T12:28:51.738Z,70.78
2018-12-06T12:31:19.247Z,70.86
2018-12-06T12:33:46.724Z,70.98
2018-12-06T12:36:14.163Z,69.42
2018-12-06T12:38:41.617Z,69.04
2018-12-06T12:41:09.133Z,70.17
2018-12-06T12:43:36.612Z,70.50
2018-12-06T12:46:04.095Z,70.74
2018-12-06T12:48:31.542Z,70.73
2018-12-06T12:50:58.992Z,71.01
2018-12-06T12:53:26.479Z,71.50
2018-12-06T12:55:53.989Z,71.29
2018-12-06T12:58:21.467Z,71.30
2018-12-06T13:00:49.235Z,72.27
2018-12-06T13:03:16.700Z,71.79
2018-12-06T13:05:44.167Z,71.57
2018-12-06T13:08:11.635Z,71.99
2018-12-06T13:10:39.177Z,72.55
2018-12-06T13:13:06.646Z,73.13
2018-12-06T13:15:34.139Z,73.49
2018-12-06T13:18:01.582Z,73.50
2018-12-06T13:20:29.238Z,73.67
2018-12-06T13:22:56.721Z,72.51
2018-12-06T13:25:24.326Z,74.03
2018-12-06T13:27:51.807Z,74.35
2018-12-06T13:30:19.348Z,74.04
2018-12-06T13:32:46.805Z,75.09
2018-12-06T13:35:14.283Z,74.70
2018-12-06T13:37:41.776Z,74.97
2018-12-06T13:40:09.275Z,74.60
2018-12-06T13:42:36.742Z,75.78
2018-12-06T13:45:04.530Z,75.59
2018-12-06T13:47:31.994Z,76.71
2018-12-06T13:49:59.506Z,76.21
2018-12-06T13:52:26.984Z,76.85
2018-12-06T13:54:55.058Z,76.51
2018-12-06T13:57:22.533Z,77.18
2018-12-06T13:59:50.019Z,76.90
2018-12-06T14:02:17.492Z,76.44
2018-12-06T14:04:45.865Z,75.99
2018-12-06T14:07:13.342Z,75.97
2018-12-06T14:09:40.798Z,76.27
2018-12-06T14:12:08.304Z,76.25
2018-12-06T14:14:35.796Z,76.75
2018-12-06T14:17:03.335Z,76.92
2018-12-06T14:19:30.903Z,76.55
2018-12-06T14:21:58.424Z,77.11
2018-12-06T14:24:25.899Z,77.17
2018-12-06T14:26:53.399Z,77.05
2018-12-06T14:29:20.858Z,78.42
2018-12-06T14:31:48.341Z,79.07
2018-12-06T14:34:15.823Z,78.67
2018-12-06T14:36:43.300Z,80.34
2018-12-06T14:39:11.385Z,80.39
2018-12-06T14:41:38.905Z,79.75
2018-12-06T14:44:06.354Z,79.89
2018-12-06T14:46:33.920Z,80.97
2018-12-06T14:49:01.373Z,80.87
2018-12-06T14:51:28.831Z,80.25
2018-12-06T14:53:56.268Z,81.05
2018-12-06T14:56:23.879Z,80.30
2018-12-06T14:58:51.405Z,79.76
2018-12-06T15:01:18.865Z,80.19
2018-12-06T15:03:46.372Z,80.15
2018-12-06T15:06:13.883Z,79.74
2018-12-06T15:08:41.378Z,79.80
2018-12-06T15:11:08.848Z,79.64
2018-12-06T15:13:36.378Z,79.97
2018-12-06T15:16:03.907Z,79.66
2018-12-06T15:18:31.357Z,78.92
2018-12-06T15:20:58.849Z,79.68
2018-12-06T15:23:26.417Z,79.17
2018-12-06T15:25:53.920Z,79.89
2018-12-06T15:28:21.459Z,79.55
2018-12-06T15:30:48.996Z,79.90
2018-12-06T15:33:16.559Z,80.62
2018-12-06T15:35:44.019Z,80.23
2018-12-06T15:38:11.557Z,81.13
2018-12-06T15:40:39.035Z,81.42
2018-12-06T15:43:06.551Z,82.16
2018-12-06T15:45:34.773Z,82.18
2018-12-06T15:48:02.269Z,83.20
2018-12-06T15:50:29.789Z,85.58
2018-12-06T15:52:57.275Z,87.82
2018-12-06T15:55:24.743Z,88.33
2018-12-06T15:57:52.903Z,89.46
2018-12-06T16:00:20.391Z,90.32
2018-12-06T16:02:47.893Z,90.44
2018-12-06T16:05:15.351Z,91.34
2018-12-06T16:07:42.822Z,91.77
2018-12-06T16:10:10.780Z,91.68
2018-12-06T16:12:38.254Z,91.95
2018-12-06T16:15:06.692Z,93.17
2018-12-06T16:17:34.207Z,93.51
2018-12-06T16:20:01.732Z,94.79
2018-12-06T16:22:29.242Z,94.51
2018-12-06T16:24:56.775Z,95.01
2018-12-06T16:27:24.270Z,95.29
2018-12-06T16:29:51.812Z,96.49
2018-12-06T16:32:19.269Z,97.34
2018-12-06T16:34:46.770Z,97.89
2018-12-06T16:37:14.214Z,97.89
2018-12-06T16:39:41.692Z,97.34
2018-12-06T16:42:09.177Z,97.31
2018-12-06T16:44:36.659Z,97.32
2018-12-06T16:47:04.162Z,97.76
2018-12-06T16:49:32.723Z,97.96
2018-12-06T16:52:00.539Z,97.66
2018-12-06T16:54:28.025Z,97.90
2018-12-06T16:56:55.527Z,99.21
2018-12-06T16:59:22.968Z,99.22
2018-12-06T17:01:50.507Z,98.59
2018-12-06T17:04:18.025Z,98.32
2018-12-06T17:06:45.527Z,99.23
2018-12-06T17:09:13.012Z,99.24
2018-12-06T17:11:40.515Z,99.05
2018-12-06T17:14:07.966Z,99.08
2018-12-06T17:16:35.496Z,99.72
2018-12-06T17:19:03.034Z,99.36
2018-12-06T17:21:30.543Z,98.43
2018-12-06T17:23:58.007Z,98.10
2018-12-06T17:26:25.674Z,99.05
2018-12-06T17:28:53.128Z,98.67
2018-12-06T17:31:20.688Z,98.31
2018-12-06T17:33:48.195Z,99.37
2018-12-06T17:36:15.692Z,99.39
2018-12-06T17:38:43.238Z,99.55
2018-12-06T17:41:10.823Z,98.89
2018-12-06T17:43:38.313Z,98.94
2018-12-06T17:46:05.903Z,98.51
2018-12-06T17:48:33.359Z,98.28
2018-12-06T17:51:00.933Z,98.07
2018-12-06T17:53:28.533Z,98.53
2018-12-06T17:55:56.052Z,97.40
2018-12-06T17:58:23.531Z,98.99
2018-12-06T18:00:51.067Z,98.46
2018-12-06T18:03:18.588Z,98.83
2018-12-06T18:05:46.079Z,98.93
2018-12-06T18:08:13.554Z,99.08
2018-12-06T18:10:41.184Z,98.63
2018-12-06T18:13:08.722Z,99.22
2018-12-06T18:15:36.425Z,98.65
2018-12-06T18:18:03.962Z,97.80
2018-12-06T18:20:31.491Z,98.48
2018-12-06T18:22:59.137Z,97.45
2018-12-06T18:25:26.648Z,97.73
2018-12-06T18:27:54.239Z,98.29
2018-12-06T18:30:21.768Z,98.04
2018-12-06T18:32:49.561Z,97.92
2018-12-06T18:35:17.045Z,97.54
2018-12-06T18:37:44.560Z,97.55
2018-12-06T18:40:12.068Z,97.17
2018-12-06T18:42:40.349Z,97.22
2018-12-06T18:45:07.923Z,97.47
2018-12-06T18:47:35.425Z,96.48
2018-12-06T18:50:02.982Z,96.64
2018-12-06T18:52:30.582Z,96.55
2018-12-06T18:54:58.571Z,96.64
2018-12-06T18:57:26.078Z,96.67
2018-12-06T18:59:53.568Z,97.86
2018-12-06T19:02:21.323Z,98.00
2018-12-06T19:04:48.827Z,98.13
2018-12-06T19:07:16.322Z,97.52
2018-12-06T19:09:43.862Z,97.84
2018-12-06T19:12:11.401Z,98.12
2018-12-06T19:14:38.906Z,98.56
2018-12-06T19:17:06.407Z,98.03
2018-12-06T19:19:33.906Z,98.14
2018-12-06T19:22:01.487Z,98.08
2018-12-06T19:24:29.056Z,97.25
2018-12-06T19:26:56.513Z,97.35
2018-12-06T19:29:23.997Z,98.08
2018-12-06T19:31:51.508Z,98.67
2018-12-06T19:34:19.045Z,97.71
2018-12-06T19:36:46.611Z,97.82
2018-12-06T19:39:14.253Z,98.39
2018-12-06T19:41:41.905Z,98.10
2018-12-06T19:44:09.404Z,98.13
2018-12-06T19:46:36.945Z,97.98
2018-12-06T19:49:04.793Z,97.92
2018-12-06T19:51:32.943Z,97.90
2018-12-06T19:54:00.579Z,97.46
2018-12-06T19:56:28.091Z,97.75
2018-12-06T19:58:55.615Z,96.88
2018-12-06T20:01:23.141Z,97.11
2018-12-06T20:03:50.708Z,97.63
2018-12-06T20:06:18.210Z,97.17
2018-12-06T20:08:47.561Z,97.72
2018-12-06T20:11:15.065Z,98.16
2018-12-06T20:13:42.607Z,98.06
2018-12-06T20:16:10.163Z,98.06
2018-12-06T20:18:37.644Z,97.20
2018-12-06T20:21:06.958Z,97.41
2018-12-06T20:23:34.440Z,98.16
2018-12-06T20:26:01.956Z,97.16
2018-12-06T20:28:29.512Z,97.39
2018-12-06T20:33:30.967Z,97.45
2018-12-06T20:35:58.482Z,96.74
2018-12-06T20:38:26.585Z,97.24
2018-12-06T20:40:56.142Z,96.54
2018-12-06T20:43:23.718Z,96.58
2018-12-06T20:45:51.202Z,96.54
2018-12-06T20:48:18.677Z,97.56
2018-12-06T20:50:49.300Z,96.88
2018-12-06T20:53:15.815Z,96.89
2018-12-06T20:55:43.310Z,97.92
2018-12-06T20:58:14.835Z,97.50
2018-12-06T21:00:40.357Z,97.81
2018-12-06T21:03:07.935Z,98.06
2018-12-06T21:05:35.434Z,98.67
2018-12-06T21:08:02.968Z,98.19
2018-12-06T21:10:30.444Z,98.80
2018-12-06T21:12:57.988Z,98.83
2018-12-06T21:15:25.490Z,98.76
2018-12-06T21:17:53.043Z,98.20
2018-12-06T21:20:21.523Z,99.09
2018-12-06T21:22:49.039Z,99.01
2018-12-06T21:27:50.493Z,99.44
2018-12-06T21:30:17.978Z,98.74
2018-12-06T21:32:45.477Z,97.99
2018-12-06T21:35:13.053Z,98.27
2018-12-06T21:37:40.526Z,98.14
2018-12-06T21:40:08.135Z,98.62
2018-12-06T21:42:35.597Z,98.12
2018-12-06T21:45:03.153Z,97.54
2018-12-06T21:47:30.802Z,97.21
2018-12-06T21:49:58.260Z,97.61
2018-12-06T21:52:25.793Z,97.60
2018-12-06T21:54:54.801Z,97.84
2018-12-06T21:57:22.341Z,97.79
2018-12-06T21:59:49.848Z,97.33
2018-12-06T22:02:23.237Z,98.08
2018-12-06T22:04:50.753Z,97.37
2018-12-06T22:07:18.305Z,97.24
2018-12-06T22:09:45.866Z,97.47
2018-12-06T22:12:13.479Z,97.82
2018-12-06T22:14:41.036Z,98.58
2018-12-06T22:17:08.509Z,99.36
2018-12-06T22:19:35.986Z,98.44
2018-12-06T22:22:03.583Z,97.51
2018-12-06T22:24:31.063Z,98.37
2018-12-06T22:26:58.555Z,98.02
2018-12-06T22:29:26.019Z,98.27
2018-12-06T22:31:53.563Z,98.43
2018-12-06T22:34:21.018Z,98.55
2018-12-06T22:36:48.552Z,97.05
2018-12-06T22:39:16.045Z,97.05
2018-12-06T22:41:43.510Z,96.75
2018-12-06T22:44:10.987Z,98.12
2018-12-06T22:46:38.436Z,97.25
2018-12-06T22:49:05.926Z,96.92
2018-12-06T22:51:33.455Z,97.52
2018-12-06T22:54:00.959Z,96.90
2018-12-06T22:56:28.749Z,96.61
2018-12-06T22:58:56.202Z,95.92
2018-12-06T23:01:29.372Z,96.10
2018-12-06T23:03:56.927Z,96.44
2018-12-06T23:06:24.411Z,96.13
2018-12-06T23:08:51.877Z,96.86
2018-12-06T23:11:19.353Z,95.84
2018-12-06T23:13:46.932Z,96.00
2018-12-06T23:16:14.422Z,95.95
2018-12-06T23:18:41.920Z,96.63
2018-12-06T23:21:09.391Z,96.76
2018-12-06T23:23:36.884Z,97.07
2018-12-06T23:26:04.336Z,96.47
2018-12-06T23:28:31.836Z,97.49
2018-12-06T23:30:59.427Z,96.27
2018-12-06T23:33:32.033Z,96.80
2018-12-06T23:35:56.460Z,96.66
2018-12-06T23:38:24.027Z,96.25
2018-12-06T23:40:51.475Z,96.26
2018-12-06T23:43:19.061Z,96.24
2018-12-06T23:45:46.552Z,96.81
2018-12-06T23:48:14.088Z,95.86
2018-12-06T23:50:41.538Z,96.45
2018-12-06T23:53:09.104Z,96.19
2018-12-06T23:55:36.589Z,95.25
2018-12-06T23:58:04.087Z,95.48
